sensor_id;sensor_type;location;lat;lon;timestamp;P1;durP1;ratioP1;P2;durP2;ratioP2
51588;SDS011;37671;53.258;6.460;2022-07-29T08:55:27;6.40;;;1.73;;
51588;SDS011;37671;53.258;6.460;2022-07-29T08:57:53;6.60;;;1.42;;
51588;SDS011;37671;53.258;6.460;2022-07-29T09:00:20;7.38;;;1.50;;
51588;SDS011;37671;53.258;6.460;2022-07-29T09:02:48;7.60;;;1.65;;
51588;SDS011;37671;53.258;6.460;2022-07-29T09:05:19;4.15;;;1.70;;
51588;SDS011;37671;53.258;6.460;2022-07-29T09:07:45;6.88;;;1.83;;
51588;SDS011;37671;53.258;6.460;2022-07-29T09:10:12;7.45;;;1.95;;
51588;SDS011;37671;53.258;6.460;2022-07-29T09:12:38;4.88;;;1.40;;
51588;SDS011;37671;53.258;6.460;2022-07-29T09:15:04;5.28;;;1.40;;
51588;SDS011;37671;53.258;6.460;2022-07-29T09:17:49;5.18;;;1.60;;
51588;SDS011;37671;53.258;6.460;2022-07-29T09:20:16;3.90;;;1.52;;
51588;SDS011;37671;53.258;6.460;2022-07-29T09:22:45;6.45;;;1.80;;
51588;SDS011;37671;53.258;6.460;2022-07-29T09:25:37;8.02;;;2.00;;
51588;SDS011;37671;53.258;6.460;2022-07-29T09:28:07;5.97;;;1.63;;
51588;SDS011;37671;53.258;6.460;2022-07-29T09:30:34;6.05;;;1.60;;
51588;SDS011;37671;53.258;6.460;2022-07-29T09:33:01;5.85;;;1.70;;
51588;SDS011;37671;53.258;6.460;2022-07-29T09:35:28;6.60;;;1.90;;
51588;SDS011;37671;53.258;6.460;2022-07-29T09:37:54;7.53;;;1.90;;
51588;SDS011;37671;53.258;6.460;2022-07-29T09:40:22;4.28;;;1.63;;
51588;SDS011;37671;53.258;6.460;2022-07-29T09:42:49;6.40;;;1.83;;
51588;SDS011;37671;53.258;6.460;2022-07-29T09:45:36;6.00;;;1.60;;
51588;SDS011;37671;53.258;6.460;2022-07-29T09:48:22;9.52;;;2.03;;
51588;SDS011;37671;53.258;6.460;2022-07-29T09:50:49;7.15;;;1.60;;
51588;SDS011;37671;53.258;6.460;2022-07-29T09:53:31;6.78;;;2.03;;
51588;SDS011;37671;53.258;6.460;2022-07-29T09:55:58;7.70;;;2.22;;
51588;SDS011;37671;53.258;6.460;2022-07-29T09:58:24;8.30;;;1.80;;
51588;SDS011;37671;53.258;6.460;2022-07-29T10:00:50;5.60;;;1.63;;
51588;SDS011;37671;53.258;6.460;2022-07-29T10:03:18;6.63;;;2.00;;
51588;SDS011;37671;53.258;6.460;2022-07-29T10:05:44;7.20;;;1.98;;
51588;SDS011;37671;53.258;6.460;2022-07-29T10:08:10;6.47;;;1.83;;
51588;SDS011;37671;53.258;6.460;2022-07-29T10:10:38;15.57;;;2.20;;
51588;SDS011;37671;53.258;6.460;2022-07-29T10:13:08;7.00;;;1.98;;
51588;SDS011;37671;53.258;6.460;2022-07-29T10:15:37;5.90;;;1.70;;
51588;SDS011;37671;53.258;6.460;2022-07-29T10:18:06;10.07;;;2.17;;
51588;SDS011;37671;53.258;6.460;2022-07-29T10:20:33;7.38;;;1.90;;
51588;SDS011;37671;53.258;6.460;2022-07-29T10:22:59;7.38;;;2.13;;
51588;SDS011;37671;53.258;6.460;2022-07-29T10:25:25;6.75;;;2.05;;
51588;SDS011;37671;53.258;6.460;2022-07-29T10:27:52;4.97;;;1.50;;
51588;SDS011;37671;53.258;6.460;2022-07-29T10:30:19;9.02;;;1.90;;
51588;SDS011;37671;53.258;6.460;2022-07-29T10:40:49;5.95;;;2.05;;
51588;SDS011;37671;53.258;6.460;2022-07-29T10:43:53;7.30;;;1.90;;
51588;SDS011;37671;53.258;6.460;2022-07-29T10:46:39;6.68;;;1.98;;
51588;SDS011;37671;53.258;6.460;2022-07-29T10:57:15;6.20;;;2.00;;
51588;SDS011;37671;53.258;6.460;2022-07-29T10:59:46;9.18;;;2.35;;
51588;SDS011;37671;53.258;6.460;2022-07-29T11:05:04;6.88;;;2.00;;
51588;SDS011;37671;53.258;6.460;2022-07-29T11:07:31;5.70;;;2.00;;
51588;SDS011;37671;53.258;6.460;2022-07-29T11:10:22;7.47;;;2.03;;
51588;SDS011;37671;53.258;6.460;2022-07-29T11:12:47;6.18;;;1.90;;
51588;SDS011;37671;53.258;6.460;2022-07-29T11:15:17;6.07;;;2.03;;
51588;SDS011;37671;53.258;6.460;2022-07-29T11:39:34;4.85;;;1.90;;
51588;SDS011;37671;53.258;6.460;2022-07-29T11:47:22;5.43;;;2.05;;
51588;SDS011;37671;53.258;6.460;2022-07-29T11:49:52;5.95;;;2.13;;
51588;SDS011;37671;53.258;6.460;2022-07-29T11:52:19;7.97;;;2.22;;
51588;SDS011;37671;53.258;6.460;2022-07-29T11:54:47;5.68;;;2.13;;
51588;SDS011;37671;53.258;6.460;2022-07-29T11:57:14;6.28;;;2.70;;
51588;SDS011;37671;53.258;6.460;2022-07-29T11:59:42;8.35;;;3.10;;
51588;SDS011;37671;53.258;6.460;2022-07-29T12:02:09;9.95;;;3.35;;
51588;SDS011;37671;53.258;6.460;2022-07-29T12:04:49;8.77;;;2.88;;
51588;SDS011;37671;53.258;6.460;2022-07-29T12:07:25;7.97;;;3.15;;
51588;SDS011;37671;53.258;6.460;2022-07-29T12:09:52;10.82;;;3.13;;
51588;SDS011;37671;53.258;6.460;2022-07-29T12:12:19;7.55;;;3.25;;
51588;SDS011;37671;53.258;6.460;2022-07-29T12:14:45;6.88;;;2.50;;
51588;SDS011;37671;53.258;6.460;2022-07-29T12:19:57;9.98;;;2.80;;
51588;SDS011;37671;53.258;6.460;2022-07-29T12:22:35;6.78;;;2.55;;
51588;SDS011;37671;53.258;6.460;2022-07-29T12:27:29;7.90;;;3.60;;
51588;SDS011;37671;53.258;6.460;2022-07-29T12:29:56;13.00;;;2.70;;
51588;SDS011;37671;53.258;6.460;2022-07-29T12:32:36;8.43;;;2.83;;
51588;SDS011;37671;53.258;6.460;2022-07-29T12:35:05;10.02;;;2.40;;
51588;SDS011;37671;53.258;6.460;2022-07-29T12:37:35;7.85;;;2.10;;
51588;SDS011;37671;53.258;6.460;2022-07-29T12:40:03;13.07;;;3.05;;
51588;SDS011;37671;53.258;6.460;2022-07-29T12:42:30;9.18;;;2.00;;
51588;SDS011;37671;53.258;6.460;2022-07-29T12:44:59;9.68;;;2.30;;
51588;SDS011;37671;53.258;6.460;2022-07-29T12:47:29;8.38;;;2.35;;
51588;SDS011;37671;53.258;6.460;2022-07-29T12:50:14;7.18;;;1.85;;
51588;SDS011;37671;53.258;6.460;2022-07-29T12:52:43;9.57;;;2.00;;
51588;SDS011;37671;53.258;6.460;2022-07-29T12:55:10;7.88;;;1.50;;
51588;SDS011;37671;53.258;6.460;2022-07-29T12:57:45;6.68;;;1.75;;
51588;SDS011;37671;53.258;6.460;2022-07-29T13:00:12;4.93;;;1.67;;
51588;SDS011;37671;53.258;6.460;2022-07-29T13:02:39;7.15;;;1.65;;
51588;SDS011;37671;53.258;6.460;2022-07-29T13:05:07;4.00;;;1.23;;
51588;SDS011;37671;53.258;6.460;2022-07-29T13:07:33;6.50;;;1.60;;
51588;SDS011;37671;53.258;6.460;2022-07-29T13:10:12;4.47;;;1.05;;
51588;SDS011;37671;53.258;6.460;2022-07-29T13:15:31;6.47;;;1.45;;
51588;SDS011;37671;53.258;6.460;2022-07-29T13:17:57;6.10;;;1.23;;
51588;SDS011;37671;53.258;6.460;2022-07-29T13:20:24;6.10;;;1.23;;
51588;SDS011;37671;53.258;6.460;2022-07-29T13:22:54;4.95;;;1.27;;
51588;SDS011;37671;53.258;6.460;2022-07-29T13:25:25;5.20;;;1.13;;
51588;SDS011;37671;53.258;6.460;2022-07-29T13:27:53;9.85;;;1.42;;
51588;SDS011;37671;53.258;6.460;2022-07-29T13:30:20;4.57;;;1.17;;
51588;SDS011;37671;53.258;6.460;2022-07-29T13:32:47;7.00;;;1.25;;
51588;SDS011;37671;53.258;6.460;2022-07-29T13:35:13;5.65;;;1.40;;
51588;SDS011;37671;53.258;6.460;2022-07-29T13:37:39;10.48;;;1.40;;
51588;SDS011;37671;53.258;6.460;2022-07-29T13:40:05;4.60;;;1.42;;
51588;SDS011;37671;53.258;6.460;2022-07-29T13:42:35;5.07;;;1.40;;
51588;SDS011;37671;53.258;6.460;2022-07-29T13:45:01;5.22;;;1.30;;
51588;SDS011;37671;53.258;6.460;2022-07-29T13:47:27;7.00;;;1.23;;
51588;SDS011;37671;53.258;6.460;2022-07-29T13:49:53;9.75;;;2.03;;
51588;SDS011;37671;53.258;6.460;2022-07-29T13:52:20;9.77;;;1.63;;
51588;SDS011;37671;53.258;6.460;2022-07-29T13:54:46;4.38;;;1.40;;
51588;SDS011;37671;53.258;6.460;2022-07-29T13:57:12;7.95;;;1.60;;
51588;SDS011;37671;53.258;6.460;2022-07-29T13:59:41;7.35;;;1.45;;
51588;SDS011;37671;53.258;6.460;2022-07-29T14:02:07;6.07;;;1.13;;
51588;SDS011;37671;53.258;6.460;2022-07-29T14:04:34;6.13;;;1.27;;
51588;SDS011;37671;53.258;6.460;2022-07-29T14:06:59;6.40;;;1.58;;
51588;SDS011;37671;53.258;6.460;2022-07-29T14:09:25;4.93;;;1.30;;
51588;SDS011;37671;53.258;6.460;2022-07-29T14:11:51;8.13;;;1.30;;
51588;SDS011;37671;53.258;6.460;2022-07-29T14:14:17;8.88;;;1.90;;
51588;SDS011;37671;53.258;6.460;2022-07-29T14:16:43;7.90;;;1.55;;
51588;SDS011;37671;53.258;6.460;2022-07-29T14:19:09;7.40;;;1.45;;
51588;SDS011;37671;53.258;6.460;2022-07-29T14:21:35;7.07;;;1.35;;
51588;SDS011;37671;53.258;6.460;2022-07-29T14:24:01;6.20;;;1.35;;
51588;SDS011;37671;53.258;6.460;2022-07-29T14:26:27;5.10;;;1.50;;
51588;SDS011;37671;53.258;6.460;2022-07-29T14:28:53;7.65;;;1.20;;
51588;SDS011;37671;53.258;6.460;2022-07-29T14:31:18;5.07;;;1.25;;
51588;SDS011;37671;53.258;6.460;2022-07-29T14:33:44;7.78;;;1.25;;
51588;SDS011;37671;53.258;6.460;2022-07-29T14:36:10;5.85;;;1.60;;
51588;SDS011;37671;53.258;6.460;2022-07-29T14:38:36;6.60;;;1.30;;
51588;SDS011;37671;53.258;6.460;2022-07-29T14:41:02;5.03;;;1.38;;
51588;SDS011;37671;53.258;6.460;2022-07-29T14:43:28;4.47;;;1.30;;
51588;SDS011;37671;53.258;6.460;2022-07-29T14:45:54;7.80;;;1.38;;
51588;SDS011;37671;53.258;6.460;2022-07-29T14:48:19;5.20;;;1.10;;
51588;SDS011;37671;53.258;6.460;2022-07-29T14:50:45;4.50;;;1.10;;
51588;SDS011;37671;53.258;6.460;2022-07-29T14:53:10;4.85;;;1.00;;
51588;SDS011;37671;53.258;6.460;2022-07-29T14:55:38;3.80;;;1.10;;
51588;SDS011;37671;53.258;6.460;2022-07-29T14:58:04;4.55;;;1.13;;
51588;SDS011;37671;53.258;6.460;2022-07-29T15:00:30;5.43;;;1.30;;
51588;SDS011;37671;53.258;6.460;2022-07-29T16:28:32;7.97;;;1.50;;
51588;SDS011;37671;53.258;6.460;2022-07-29T16:30:58;7.05;;;1.40;;
51588;SDS011;37671;53.258;6.460;2022-07-29T16:33:24;5.65;;;1.42;;
51588;SDS011;37671;53.258;6.460;2022-07-29T16:35:50;4.22;;;1.40;;
51588;SDS011;37671;53.258;6.460;2022-07-29T16:38:16;3.83;;;1.08;;
51588;SDS011;37671;53.258;6.460;2022-07-29T16:40:42;6.57;;;1.83;;
51588;SDS011;37671;53.258;6.460;2022-07-29T16:43:08;5.45;;;1.40;;
51588;SDS011;37671;53.258;6.460;2022-07-29T16:45:34;4.00;;;1.30;;
51588;SDS011;37671;53.258;6.460;2022-07-29T16:48:00;7.35;;;1.90;;
51588;SDS011;37671;53.258;6.460;2022-07-29T16:50:27;6.65;;;1.50;;
51588;SDS011;37671;53.258;6.460;2022-07-29T16:52:54;8.05;;;1.75;;
51588;SDS011;37671;53.258;6.460;2022-07-29T16:55:20;5.15;;;1.45;;
51588;SDS011;37671;53.258;6.460;2022-07-29T16:57:46;6.07;;;1.50;;
51588;SDS011;37671;53.258;6.460;2022-07-29T17:00:12;4.75;;;1.75;;
51588;SDS011;37671;53.258;6.460;2022-07-29T17:02:40;6.80;;;1.75;;
51588;SDS011;37671;53.258;6.460;2022-07-29T17:05:06;6.18;;;1.70;;
51588;SDS011;37671;53.258;6.460;2022-07-29T17:07:36;8.27;;;1.80;;
51588;SDS011;37671;53.258;6.460;2022-07-29T17:10:02;5.90;;;1.80;;
51588;SDS011;37671;53.258;6.460;2022-07-29T17:12:36;5.45;;;1.48;;
51588;SDS011;37671;53.258;6.460;2022-07-29T17:15:03;6.07;;;1.70;;
51588;SDS011;37671;53.258;6.460;2022-07-29T17:17:29;6.30;;;1.70;;
51588;SDS011;37671;53.258;6.460;2022-07-29T17:19:55;4.20;;;1.60;;
51588;SDS011;37671;53.258;6.460;2022-07-29T17:22:21;4.47;;;1.45;;
51588;SDS011;37671;53.258;6.460;2022-07-29T17:24:47;9.95;;;1.75;;
51588;SDS011;37671;53.258;6.460;2022-07-29T17:27:12;6.97;;;1.48;;
51588;SDS011;37671;53.258;6.460;2022-07-29T17:29:38;5.13;;;1.52;;
51588;SDS011;37671;53.258;6.460;2022-07-29T17:32:04;4.78;;;1.65;;
51588;SDS011;37671;53.258;6.460;2022-07-29T17:34:30;7.22;;;1.40;;
51588;SDS011;37671;53.258;6.460;2022-07-29T17:36:55;3.83;;;1.23;;
51588;SDS011;37671;53.258;6.460;2022-07-29T17:39:21;4.25;;;1.42;;
51588;SDS011;37671;53.258;6.460;2022-07-29T17:41:47;5.18;;;1.40;;
51588;SDS011;37671;53.258;6.460;2022-07-29T17:44:13;7.07;;;1.40;;
51588;SDS011;37671;53.258;6.460;2022-07-29T17:46:39;3.78;;;1.20;;
51588;SDS011;37671;53.258;6.460;2022-07-29T17:49:04;6.63;;;1.55;;
51588;SDS011;37671;53.258;6.460;2022-07-29T17:51:30;4.65;;;1.30;;
51588;SDS011;37671;53.258;6.460;2022-07-29T17:53:56;7.20;;;1.60;;
51588;SDS011;37671;53.258;6.460;2022-07-29T17:56:23;4.18;;;1.30;;
51588;SDS011;37671;53.258;6.460;2022-07-29T17:58:52;6.78;;;1.58;;
51588;SDS011;37671;53.258;6.460;2022-07-29T18:01:18;5.07;;;1.15;;
51588;SDS011;37671;53.258;6.460;2022-07-29T18:03:43;5.18;;;1.60;;
51588;SDS011;37671;53.258;6.460;2022-07-29T18:06:09;4.22;;;1.25;;
51588;SDS011;37671;53.258;6.460;2022-07-29T18:08:35;5.00;;;1.58;;
51588;SDS011;37671;53.258;6.460;2022-07-29T18:11:01;6.68;;;1.50;;
51588;SDS011;37671;53.258;6.460;2022-07-29T18:13:27;4.45;;;1.40;;
51588;SDS011;37671;53.258;6.460;2022-07-29T18:15:53;4.00;;;1.55;;
51588;SDS011;37671;53.258;6.460;2022-07-29T18:18:19;7.05;;;1.73;;
51588;SDS011;37671;53.258;6.460;2022-07-29T18:20:44;6.22;;;1.77;;
51588;SDS011;37671;53.258;6.460;2022-07-29T18:23:10;4.43;;;1.23;;
51588;SDS011;37671;53.258;6.460;2022-07-29T18:25:36;8.27;;;1.80;;
51588;SDS011;37671;53.258;6.460;2022-07-29T18:28:03;8.13;;;2.20;;
51588;SDS011;37671;53.258;6.460;2022-07-29T18:30:30;6.43;;;1.50;;
51588;SDS011;37671;53.258;6.460;2022-07-29T18:32:58;4.97;;;1.70;;
51588;SDS011;37671;53.258;6.460;2022-07-29T18:35:24;5.75;;;1.40;;
51588;SDS011;37671;53.258;6.460;2022-07-29T18:37:52;7.80;;;1.98;;
51588;SDS011;37671;53.258;6.460;2022-07-29T18:40:19;7.15;;;1.70;;
51588;SDS011;37671;53.258;6.460;2022-07-29T18:42:47;6.20;;;2.03;;
51588;SDS011;37671;53.258;6.460;2022-07-29T18:45:13;7.32;;;2.28;;
51588;SDS011;37671;53.258;6.460;2022-07-29T18:47:41;5.57;;;1.70;;
51588;SDS011;37671;53.258;6.460;2022-07-29T18:50:10;3.67;;;1.63;;
51588;SDS011;37671;53.258;6.460;2022-07-29T18:52:36;4.75;;;1.45;;
51588;SDS011;37671;53.258;6.460;2022-07-29T18:55:01;7.15;;;2.00;;
51588;SDS011;37671;53.258;6.460;2022-07-29T18:57:30;5.88;;;1.80;;
51588;SDS011;37671;53.258;6.460;2022-07-29T18:59:58;10.23;;;1.90;;
51588;SDS011;37671;53.258;6.460;2022-07-29T19:02:24;7.30;;;2.35;;
51588;SDS011;37671;53.258;6.460;2022-07-29T19:04:49;6.30;;;2.25;;
51588;SDS011;37671;53.258;6.460;2022-07-29T19:07:18;5.25;;;1.95;;
51588;SDS011;37671;53.258;6.460;2022-07-29T19:09:46;4.22;;;1.80;;
51588;SDS011;37671;53.258;6.460;2022-07-29T19:12:12;6.72;;;1.92;;
51588;SDS011;37671;53.258;6.460;2022-07-29T19:14:37;6.18;;;2.15;;
51588;SDS011;37671;53.258;6.460;2022-07-29T19:17:03;7.25;;;2.38;;
51588;SDS011;37671;53.258;6.460;2022-07-29T19:19:29;4.97;;;2.17;;
51588;SDS011;37671;53.258;6.460;2022-07-29T19:21:54;6.75;;;2.58;;
51588;SDS011;37671;53.258;6.460;2022-07-29T19:24:20;4.95;;;2.40;;
51588;SDS011;37671;53.258;6.460;2022-07-29T19:26:46;7.28;;;2.55;;
51588;SDS011;37671;53.258;6.460;2022-07-29T19:29:12;11.20;;;2.70;;
51588;SDS011;37671;53.258;6.460;2022-07-29T19:31:41;8.93;;;2.55;;
51588;SDS011;37671;53.258;6.460;2022-07-29T19:34:07;5.78;;;2.30;;
51588;SDS011;37671;53.258;6.460;2022-07-29T19:36:33;5.20;;;2.70;;
51588;SDS011;37671;53.258;6.460;2022-07-29T19:38:59;7.32;;;3.03;;
51588;SDS011;37671;53.258;6.460;2022-07-29T19:41:25;8.55;;;3.53;;
51588;SDS011;37671;53.258;6.460;2022-07-29T19:43:51;10.05;;;3.70;;
51588;SDS011;37671;53.258;6.460;2022-07-29T19:46:17;11.25;;;4.13;;
51588;SDS011;37671;53.258;6.460;2022-07-29T19:48:42;8.77;;;3.78;;
51588;SDS011;37671;53.258;6.460;2022-07-29T19:51:08;10.40;;;3.70;;
51588;SDS011;37671;53.258;6.460;2022-07-29T19:53:34;8.25;;;3.45;;
51588;SDS011;37671;53.258;6.460;2022-07-29T19:56:00;7.97;;;3.40;;
51588;SDS011;37671;53.258;6.460;2022-07-29T19:58:28;9.52;;;2.80;;
51588;SDS011;37671;53.258;6.460;2022-07-29T20:00:54;11.07;;;3.00;;
51588;SDS011;37671;53.258;6.460;2022-07-29T20:03:20;9.90;;;3.08;;
51588;SDS011;37671;53.258;6.460;2022-07-29T20:05:45;7.50;;;2.85;;
51588;SDS011;37671;53.258;6.460;2022-07-29T20:08:14;7.47;;;2.63;;
51588;SDS011;37671;53.258;6.460;2022-07-29T20:10:40;8.68;;;3.17;;
51588;SDS011;37671;53.258;6.460;2022-07-29T20:13:09;6.75;;;3.20;;
51588;SDS011;37671;53.258;6.460;2022-07-29T20:15:37;8.77;;;2.80;;
51588;SDS011;37671;53.258;6.460;2022-07-29T20:18:03;6.10;;;3.10;;
51588;SDS011;37671;53.258;6.460;2022-07-29T20:20:29;11.02;;;3.58;;
51588;SDS011;37671;53.258;6.460;2022-07-29T20:22:55;6.68;;;3.30;;
51588;SDS011;37671;53.258;6.460;2022-07-29T20:25:21;11.00;;;3.00;;
51588;SDS011;37671;53.258;6.460;2022-07-29T20:27:49;7.55;;;3.10;;
51588;SDS011;37671;53.258;6.460;2022-07-29T20:30:19;5.70;;;2.65;;
51588;SDS011;37671;53.258;6.460;2022-07-29T20:32:46;7.25;;;3.47;;
51588;SDS011;37671;53.258;6.460;2022-07-29T20:35:12;6.68;;;3.10;;
51588;SDS011;37671;53.258;6.460;2022-07-29T20:37:38;7.90;;;3.10;;
51588;SDS011;37671;53.258;6.460;2022-07-29T20:40:05;10.93;;;3.42;;
51588;SDS011;37671;53.258;6.460;2022-07-29T20:42:32;7.20;;;3.70;;
51588;SDS011;37671;53.258;6.460;2022-07-29T20:45:01;6.43;;;3.67;;
51588;SDS011;37671;53.258;6.460;2022-07-29T20:47:27;11.20;;;3.50;;
51588;SDS011;37671;53.258;6.460;2022-07-29T20:49:53;8.27;;;3.95;;
51588;SDS011;37671;53.258;6.460;2022-07-29T20:52:18;7.57;;;4.00;;
51588;SDS011;37671;53.258;6.460;2022-07-29T20:54:48;10.70;;;4.00;;
51588;SDS011;37671;53.258;6.460;2022-07-29T20:57:14;8.73;;;4.18;;
51588;SDS011;37671;53.258;6.460;2022-07-29T20:59:42;8.18;;;3.90;;
51588;SDS011;37671;53.258;6.460;2022-07-29T21:02:09;7.40;;;3.70;;
51588;SDS011;37671;53.258;6.460;2022-07-29T21:04:35;8.55;;;3.67;;
51588;SDS011;37671;53.258;6.460;2022-07-29T21:07:01;9.05;;;3.97;;
51588;SDS011;37671;53.258;6.460;2022-07-29T21:09:28;9.27;;;3.95;;
51588;SDS011;37671;53.258;6.460;2022-07-29T21:11:56;8.38;;;4.43;;
51588;SDS011;37671;53.258;6.460;2022-07-29T21:14:24;6.97;;;4.07;;
51588;SDS011;37671;53.258;6.460;2022-07-29T21:17:11;8.60;;;4.13;;
51588;SDS011;37671;53.258;6.460;2022-07-29T21:19:38;7.72;;;3.92;;
51588;SDS011;37671;53.258;6.460;2022-07-29T21:22:04;8.10;;;4.10;;
51588;SDS011;37671;53.258;6.460;2022-07-29T21:24:29;9.60;;;4.60;;
51588;SDS011;37671;53.258;6.460;2022-07-29T21:26:56;11.57;;;4.65;;
51588;SDS011;37671;53.258;6.460;2022-07-29T21:29:40;8.75;;;4.15;;
51588;SDS011;37671;53.258;6.460;2022-07-29T21:32:06;8.98;;;4.22;;
51588;SDS011;37671;53.258;6.460;2022-07-29T21:34:32;11.55;;;4.50;;
51588;SDS011;37671;53.258;6.460;2022-07-29T21:36:57;7.88;;;4.88;;
51588;SDS011;37671;53.258;6.460;2022-07-29T21:39:23;11.98;;;4.72;;
51588;SDS011;37671;53.258;6.460;2022-07-29T21:41:49;7.90;;;4.10;;
51588;SDS011;37671;53.258;6.460;2022-07-29T21:44:14;10.95;;;4.38;;
51588;SDS011;37671;53.258;6.460;2022-07-29T21:46:40;11.75;;;4.72;;
51588;SDS011;37671;53.258;6.460;2022-07-29T21:49:05;8.45;;;3.95;;
51588;SDS011;37671;53.258;6.460;2022-07-29T21:51:31;7.32;;;3.80;;
51588;SDS011;37671;53.258;6.460;2022-07-29T21:53:57;10.45;;;4.65;;
51588;SDS011;37671;53.258;6.460;2022-07-29T21:56:22;10.93;;;4.70;;
51588;SDS011;37671;53.258;6.460;2022-07-29T21:58:48;9.75;;;4.57;;
51588;SDS011;37671;53.258;6.460;2022-07-29T22:01:13;10.10;;;4.13;;
51588;SDS011;37671;53.258;6.460;2022-07-29T22:03:39;8.55;;;5.03;;
51588;SDS011;37671;53.258;6.460;2022-07-29T22:06:05;11.77;;;4.85;;
51588;SDS011;37671;53.258;6.460;2022-07-29T22:08:30;10.75;;;5.15;;
51588;SDS011;37671;53.258;6.460;2022-07-29T22:10:56;9.30;;;5.20;;
51588;SDS011;37671;53.258;6.460;2022-07-29T22:13:21;7.90;;;4.90;;
51588;SDS011;37671;53.258;6.460;2022-07-29T22:15:47;8.88;;;5.15;;
51588;SDS011;37671;53.258;6.460;2022-07-29T22:18:13;6.80;;;4.55;;
51588;SDS011;37671;53.258;6.460;2022-07-29T22:20:39;8.50;;;4.65;;
51588;SDS011;37671;53.258;6.460;2022-07-29T22:23:04;8.77;;;4.93;;
51588;SDS011;37671;53.258;6.460;2022-07-29T22:25:30;7.93;;;5.15;;
51588;SDS011;37671;53.258;6.460;2022-07-29T22:27:56;11.20;;;5.38;;
51588;SDS011;37671;53.258;6.460;2022-07-29T22:30:21;11.15;;;5.65;;
51588;SDS011;37671;53.258;6.460;2022-07-29T22:32:47;10.32;;;5.47;;
51588;SDS011;37671;53.258;6.460;2022-07-29T22:35:13;7.97;;;5.32;;
51588;SDS011;37671;53.258;6.460;2022-07-29T22:37:39;9.82;;;6.03;;
51588;SDS011;37671;53.258;6.460;2022-07-29T22:40:05;7.85;;;5.68;;
51588;SDS011;37671;53.258;6.460;2022-07-29T22:42:31;8.68;;;5.30;;
51588;SDS011;37671;53.258;6.460;2022-07-29T22:44:57;10.50;;;5.70;;
51588;SDS011;37671;53.258;6.460;2022-07-29T22:47:23;10.50;;;5.50;;
51588;SDS011;37671;53.258;6.460;2022-07-29T22:49:49;9.30;;;6.00;;
51588;SDS011;37671;53.258;6.460;2022-07-29T22:52:14;8.98;;;5.97;;
51588;SDS011;37671;53.258;6.460;2022-07-29T22:54:40;11.75;;;6.28;;
51588;SDS011;37671;53.258;6.460;2022-07-29T22:57:05;9.00;;;5.90;;
51588;SDS011;37671;53.258;6.460;2022-07-29T22:59:31;8.20;;;5.50;;
51588;SDS011;37671;53.258;6.460;2022-07-29T23:01:57;7.38;;;5.22;;
51588;SDS011;37671;53.258;6.460;2022-07-29T23:04:22;8.82;;;5.95;;
51588;SDS011;37671;53.258;6.460;2022-07-29T23:06:49;10.68;;;6.28;;
51588;SDS011;37671;53.258;6.460;2022-07-29T23:09:15;10.73;;;6.30;;
51588;SDS011;37671;53.258;6.460;2022-07-29T23:11:40;8.90;;;5.70;;
51588;SDS011;37671;53.258;6.460;2022-07-29T23:14:06;9.52;;;5.90;;
51588;SDS011;37671;53.258;6.460;2022-07-29T23:16:31;7.60;;;5.63;;
51588;SDS011;37671;53.258;6.460;2022-07-29T23:18:57;10.63;;;5.97;;
51588;SDS011;37671;53.258;6.460;2022-07-29T23:21:23;9.40;;;5.97;;
51588;SDS011;37671;53.258;6.460;2022-07-29T23:23:49;10.23;;;6.10;;
51588;SDS011;37671;53.258;6.460;2022-07-29T23:26:15;13.07;;;6.30;;
51588;SDS011;37671;53.258;6.460;2022-07-29T23:28:44;8.85;;;6.15;;
51588;SDS011;37671;53.258;6.460;2022-07-29T23:31:10;13.68;;;5.90;;
51588;SDS011;37671;53.258;6.460;2022-07-29T23:33:37;10.57;;;6.18;;
51588;SDS011;37671;53.258;6.460;2022-07-29T23:36:03;8.32;;;6.13;;
51588;SDS011;37671;53.258;6.460;2022-07-29T23:38:29;10.38;;;6.25;;
51588;SDS011;37671;53.258;6.460;2022-07-29T23:40:54;9.30;;;5.93;;
51588;SDS011;37671;53.258;6.460;2022-07-29T23:43:20;7.90;;;5.70;;
51588;SDS011;37671;53.258;6.460;2022-07-29T23:45:45;9.80;;;6.57;;
51588;SDS011;37671;53.258;6.460;2022-07-29T23:48:11;13.55;;;6.90;;
51588;SDS011;37671;53.258;6.460;2022-07-29T23:50:37;7.97;;;5.88;;
51588;SDS011;37671;53.258;6.460;2022-07-29T23:53:02;9.85;;;7.05;;
51588;SDS011;37671;53.258;6.460;2022-07-29T23:55:28;11.10;;;6.85;;
51588;SDS011;37671;53.258;6.460;2022-07-29T23:57:54;9.70;;;6.63;;
